Time;durP1;ratioP1;P1;durP2;ratioP2;P2;SDS_P1;SDS_P2;PMS_P1;PMS_P2;Temp;Humidity;BMP_temperature;BMP_pressure;BME280_temperature;BME280_humidity;BME280_pressure;Samples;Min_cycle;Max_cycle;Signal;HPM_P1;HPM_P2
2023/10/16 00:01:38;;;;;;;1.75;0.55;;;;;;;;;;5112726;28;20050;-81
2023/10/16 00:04:05;;;;;;;1.53;0.63;;;;;;;;;;5112810;28;20228;-75
2023/10/16 00:06:33;;;;;;;2.42;0.68;;;;;;;;;;5112381;28;20273;-79
2023/10/16 00:09:14;;;;;;;2.20;0.70;;;;;;;;;;5111787;28;20052;-79
2023/10/16 00:11:41;;;;;;;1.70;0.70;;;;;;;;;;5111846;28;20104;-78
2023/10/16 00:14:23;;;;;;;1.15;0.65;;;;;;;;;;5112384;28;20039;-81
2023/10/16 00:16:50;;;;;;;1.42;0.50;;;;;;;;;;5111608;28;20116;-76
2023/10/16 00:19:17;;;;;;;1.65;0.52;;;;;;;;;;5112339;28;20044;-80
2023/10/16 00:21:43;;;;;;;1.50;0.60;;;;;;;;;;5112279;28;20067;-78
2023/10/16 00:24:12;;;;;;;2.17;0.70;;;;;;;;;;5111792;28;20043;-79
2023/10/16 00:26:49;;;;;;;2.03;0.52;;;;;;;;;;5111400;28;20075;-79
2023/10/16 00:29:17;;;;;;;0.85;0.45;;;;;;;;;;5111964;28;20075;-77
2023/10/16 00:31:44;;;;;;;1.48;0.70;;;;;;;;;;5111456;28;20051;-81
2023/10/16 00:34:19;;;;;;;2.95;0.70;;;;;;;;;;5111628;28;20689;-80
2023/10/16 00:36:50;;;;;;;1.35;0.50;;;;;;;;;;5111758;28;20055;-81
2023/10/16 00:39:17;;;;;;;3.28;0.55;;;;;;;;;;5111289;28;20046;-81
2023/10/16 00:41:44;;;;;;;1.60;0.80;;;;;;;;;;5111716;28;20131;-81
2023/10/16 00:44:11;;;;;;;0.95;0.45;;;;;;;;;;5111651;28;20047;-79
2023/10/16 00:46:44;;;;;;;0.88;0.50;;;;;;;;;;5111229;28;20048;-81
2023/10/16 00:49:15;;;;;;;2.22;0.70;;;;;;;;;;5111723;28;20150;-81
2023/10/16 00:51:42;;;;;;;2.35;0.50;;;;;;;;;;5111551;28;20048;-80
2023/10/16 00:54:18;;;;;;;2.08;0.70;;;;;;;;;;5110898;28;20400;-74
2023/10/16 00:56:49;;;;;;;1.58;0.57;;;;;;;;;;5111224;28;20051;-79
2023/10/16 00:59:16;;;;;;;1.02;0.55;;;;;;;;;;5111507;28;20043;-81
2023/10/16 01:01:47;;;;;;;1.70;0.70;;;;;;;;;;5093282;28;20504;-78
2023/10/16 01:04:15;;;;;;;1.10;0.45;;;;;;;;;;5111144;28;20130;-81
2023/10/16 01:06:44;;;;;;;1.17;0.50;;;;;;;;;;5111435;28;20130;-81
2023/10/16 01:09:24;;;;;;;2.00;0.50;;;;;;;;;;5111077;28;20529;-79
2023/10/16 01:11:54;;;;;;;0.50;0.30;;;;;;;;;;5111181;28;20043;-80
2023/10/16 01:14:20;;;;;;;1.23;0.50;;;;;;;;;;5111187;28;20109;-81
2023/10/16 01:16:49;;;;;;;1.90;0.80;;;;;;;;;;5111108;28;20071;-80
2023/10/16 01:19:19;;;;;;;2.10;0.73;;;;;;;;;;5092807;28;20051;-80
2023/10/16 01:21:47;;;;;;;3.80;0.70;;;;;;;;;;5110717;28;20047;-80
2023/10/16 01:24:16;;;;;;;1.60;0.70;;;;;;;;;;5109731;28;20093;-81
2023/10/16 01:26:43;;;;;;;2.47;0.93;;;;;;;;;;5111153;28;20044;-81
2023/10/16 01:29:10;;;;;;;1.05;0.60;;;;;;;;;;5110750;28;20056;-79
2023/10/16 01:31:38;;;;;;;2.53;0.70;;;;;;;;;;5110669;28;20637;-79
2023/10/16 01:34:10;;;;;;;1.98;0.60;;;;;;;;;;5110188;28;20039;-80
2023/10/16 01:36:38;;;;;;;1.88;0.50;;;;;;;;;;5110301;28;20511;-78
2023/10/16 01:39:15;;;;;;;2.33;0.70;;;;;;;;;;5109881;28;20089;-80
2023/10/16 01:41:42;;;;;;;0.80;0.50;;;;;;;;;;5110577;28;20564;-81
2023/10/16 01:44:10;;;;;;;3.25;0.70;;;;;;;;;;5109973;28;20044;-76
2023/10/16 01:46:36;;;;;;;2.83;0.57;;;;;;;;;;5110683;28;20055;-81
2023/10/16 01:49:05;;;;;;;1.20;0.52;;;;;;;;;;5110137;28;20047;-82
2023/10/16 01:51:35;;;;;;;1.40;0.60;;;;;;;;;;5110086;28;20053;-80
2023/10/16 01:54:11;;;;;;;1.77;0.70;;;;;;;;;;5109838;28;20043;-80
2023/10/16 01:56:37;;;;;;;0.98;0.50;;;;;;;;;;5110203;28;20051;-81
2023/10/16 01:59:06;;;;;;;4.80;0.77;;;;;;;;;;5075053;28;20054;-80
2023/10/16 02:01:33;;;;;;;2.15;0.63;;;;;;;;;;5109994;28;20097;-77
2023/10/16 02:04:02;;;;;;;1.10;0.50;;;;;;;;;;5109905;28;20047;-81
2023/10/16 02:06:29;;;;;;;2.72;0.82;;;;;;;;;;5110387;28;20122;-81
2023/10/16 02:08:56;;;;;;;2.92;0.73;;;;;;;;;;5109518;28;20046;-81
2023/10/16 02:11:23;;;;;;;1.13;0.50;;;;;;;;;;5110298;28;20050;-80
2023/10/16 02:13:49;;;;;;;2.05;0.70;;;;;;;;;;5109283;28;20492;-80
2023/10/16 02:16:18;;;;;;;0.90;0.45;;;;;;;;;;5109621;28;20541;-79
2023/10/16 02:18:47;;;;;;;0.80;0.40;;;;;;;;;;5109496;28;20480;-81
2023/10/16 02:21:15;;;;;;;1.58;0.60;;;;;;;;;;5109704;28;20044;-73
2023/10/16 02:23:43;;;;;;;3.08;0.70;;;;;;;;;;5109353;28;20043;-80
2023/10/16 02:26:11;;;;;;;1.13;0.50;;;;;;;;;;5109849;28;20050;-80
2023/10/16 02:28:46;;;;;;;1.95;0.70;;;;;;;;;;5109608;28;20181;-74
2023/10/16 02:31:14;;;;;;;1.80;0.63;;;;;;;;;;5109697;28;20043;-80
2023/10/16 02:33:45;;;;;;;1.70;0.60;;;;;;;;;;5109440;28;20191;-80
2023/10/16 02:36:13;;;;;;;1.95;0.60;;;;;;;;;;5108882;28;20050;-80
2023/10/16 02:38:41;;;;;;;4.03;0.65;;;;;;;;;;5108717;28;20050;-80
2023/10/16 02:41:09;;;;;;;0.90;0.40;;;;;;;;;;5109857;28;20097;-80
2023/10/16 02:43:41;;;;;;;1.60;0.70;;;;;;;;;;5109148;28;20048;-71
2023/10/16 02:46:11;;;;;;;1.27;0.47;;;;;;;;;;5109606;28;20047;-80
2023/10/16 02:48:41;;;;;;;1.90;0.60;;;;;;;;;;5109429;28;20044;-76
2023/10/16 02:51:09;;;;;;;1.63;0.70;;;;;;;;;;5109889;28;20044;-80
2023/10/16 02:53:37;;;;;;;0.82;0.47;;;;;;;;;;5108733;28;20040;-80
2023/10/16 02:58:31;;;;;;;2.83;0.60;;;;;;;;;;5109237;28;20055;-78
2023/10/16 03:01:06;;;;;;;0.70;0.43;;;;;;;;;;5109514;28;20043;-79
2023/10/16 03:03:33;;;;;;;2.03;0.60;;;;;;;;;;5109128;28;20048;-80
2023/10/16 03:06:00;;;;;;;1.23;0.60;;;;;;;;;;5109483;28;20100;-80
2023/10/16 03:08:29;;;;;;;0.90;0.50;;;;;;;;;;5108913;28;20039;-80
2023/10/16 03:10:59;;;;;;;1.95;0.70;;;;;;;;;;5109151;28;20451;-81
2023/10/16 03:13:26;;;;;;;0.60;0.38;;;;;;;;;;5109421;28;20043;-80
2023/10/16 03:16:05;;;;;;;1.70;0.52;;;;;;;;;;5108997;28;20061;-74
2023/10/16 03:18:35;;;;;;;1.80;0.52;;;;;;;;;;5108820;28;20044;-80
2023/10/16 03:23:44;;;;;;;1.10;0.60;;;;;;;;;;5108413;28;20043;-81
2023/10/16 03:26:25;;;;;;;1.25;0.68;;;;;;;;;;5109048;28;20058;-79
2023/10/16 03:29:05;;;;;;;2.75;0.73;;;;;;;;;;5108552;28;20530;-78
2023/10/16 03:31:36;;;;;;;2.10;0.77;;;;;;;;;;5109136;28;20057;-80
2023/10/16 03:34:03;;;;;;;1.90;0.55;;;;;;;;;;5108959;28;20051;-81
2023/10/16 03:36:30;;;;;;;2.35;0.68;;;;;;;;;;5108775;28;20058;-72
2023/10/16 03:39:03;;;;;;;1.38;0.55;;;;;;;;;;5108299;28;20043;-80
2023/10/16 03:41:32;;;;;;;1.92;0.60;;;;;;;;;;5108742;28;20939;-80
2023/10/16 03:44:07;;;;;;;1.58;0.60;;;;;;;;;;5108703;28;20075;-81
2023/10/16 03:46:33;;;;;;;1.83;0.70;;;;;;;;;;5108660;28;20083;-80
2023/10/16 03:49:00;;;;;;;1.73;0.68;;;;;;;;;;5112498;28;20044;-80
2023/10/16 03:51:27;;;;;;;2.17;0.70;;;;;;;;;;5112777;28;20048;-80
2023/10/16 03:53:56;;;;;;;5.65;0.88;;;;;;;;;;5112014;28;20126;-80
2023/10/16 03:56:26;;;;;;;2.08;0.65;;;;;;;;;;5111251;28;20044;-80
2023/10/16 03:58:53;;;;;;;1.30;0.60;;;;;;;;;;5112140;28;20060;-80
2023/10/16 04:01:37;;;;;;;3.88;0.70;;;;;;;;;;5112409;28;20055;-79
2023/10/16 04:04:12;;;;;;;2.72;0.80;;;;;;;;;;5112217;28;20071;-80
2023/10/16 04:06:41;;;;;;;2.67;0.70;;;;;;;;;;5112401;28;20689;-80
2023/10/16 04:09:09;;;;;;;1.77;0.57;;;;;;;;;;5111916;28;20051;-81
2023/10/16 04:11:37;;;;;;;4.10;0.80;;;;;;;;;;5112466;28;20500;-79
2023/10/16 04:14:12;;;;;;;3.13;0.70;;;;;;;;;;5112406;28;20437;-81
2023/10/16 04:16:54;;;;;;;0.75;0.52;;;;;;;;;;5112076;28;20048;-79
2023/10/16 04:21:51;;;;;;;1.60;0.70;;;;;;;;;;5112253;28;20054;-80
2023/10/16 04:27:29;;;;;;;2.38;0.85;;;;;;;;;;5112276;28;20120;-80
2023/10/16 04:30:32;;;;;;;1.58;0.60;;;;;;;;;;5111757;28;20039;-79
2023/10/16 04:33:13;;;;;;;3.20;0.85;;;;;;;;;;5111727;28;20495;-72
2023/10/16 04:40:28;;;;;;;1.85;0.80;;;;;;;;;;5111166;28;20486;-79
2023/10/16 04:46:55;;;;;;;2.85;0.85;;;;;;;;;;5111236;28;20720;-74
2023/10/16 04:49:17;;;;;;;3.30;0.80;;;;;;;;;;5111341;28;20062;-80
2023/10/16 04:51:52;;;;;;;1.08;0.50;;;;;;;;;;5111718;28;20054;-72
2023/10/16 04:54:58;;;;;;;1.77;0.63;;;;;;;;;;5110775;28;20055;-80
2023/10/16 05:00:12;;;;;;;2.95;0.80;;;;;;;;;;5109753;28;20784;-79
2023/10/16 05:02:52;;;;;;;1.60;0.80;;;;;;;;;;5111418;28;20054;-77
2023/10/16 05:11:23;;;;;;;1.52;0.60;;;;;;;;;;5068884;28;20056;-79
2023/10/16 05:16:32;;;;;;;3.35;0.70;;;;;;;;;;5110729;28;20055;-80
2023/10/16 06:14:16;;;;;;;5.60;0.90;;;;;;;;;;5110115;28;20077;-81
2023/10/16 06:16:47;;;;;;;2.00;0.73;;;;;;;;;;5109620;28;20055;-78
2023/10/16 06:19:15;;;;;;;1.85;0.75;;;;;;;;;;5109685;28;20047;-81
2023/10/16 06:21:47;;;;;;;2.20;0.70;;;;;;;;;;5091405;28;20048;-81
2023/10/16 06:24:32;;;;;;;2.92;0.80;;;;;;;;;;5109587;28;20048;-80
2023/10/16 06:27:01;;;;;;;2.95;0.80;;;;;;;;;;5109152;28;20043;-80
2023/10/16 06:29:35;;;;;;;3.50;0.80;;;;;;;;;;5109921;28;20049;-78
2023/10/16 06:32:07;;;;;;;3.63;0.80;;;;;;;;;;5109230;28;20044;-80
2023/10/16 06:34:34;;;;;;;2.60;0.63;;;;;;;;;;5109772;28;20044;-80
2023/10/16 06:37:07;;;;;;;3.08;1.08;;;;;;;;;;5109295;28;20054;-80
2023/10/16 06:39:36;;;;;;;2.40;0.80;;;;;;;;;;5108727;28;20047;-78
2023/10/16 06:42:04;;;;;;;3.17;0.90;;;;;;;;;;5109260;28;20052;-77
2023/10/16 06:44:34;;;;;;;1.70;0.90;;;;;;;;;;5109680;28;20097;-78
2023/10/16 06:47:01;;;;;;;3.92;1.00;;;;;;;;;;5109054;28;20493;-76
2023/10/16 06:49:37;;;;;;;3.15;0.70;;;;;;;;;;5109590;28;20101;-80
2023/10/16 06:52:17;;;;;;;3.17;0.82;;;;;;;;;;5109207;28;20482;-75
2023/10/16 06:54:44;;;;;;;3.00;0.80;;;;;;;;;;5109096;28;20134;-79
2023/10/16 06:57:12;;;;;;;3.70;0.80;;;;;;;;;;5108715;28;20093;-80
2023/10/16 06:59:45;;;;;;;2.08;0.80;;;;;;;;;;5109282;28;20105;-79
2023/10/16 07:02:21;;;;;;;2.63;0.90;;;;;;;;;;5109166;28;20048;-76
2023/10/16 07:04:48;;;;;;;1.55;0.70;;;;;;;;;;5109222;28;20047;-70
2023/10/16 07:07:15;;;;;;;2.85;0.90;;;;;;;;;;5108889;28;20058;-80
2023/10/16 07:09:54;;;;;;;5.07;0.82;;;;;;;;;;5108708;28;20402;-78
2023/10/16 07:12:22;;;;;;;1.92;0.90;;;;;;;;;;5108879;28;20606;-73
2023/10/16 07:14:55;;;;;;;3.17;0.98;;;;;;;;;;5109012;28;20051;-76
2023/10/16 07:17:25;;;;;;;2.15;0.90;;;;;;;;;;5108451;28;20047;-79
2023/10/16 07:19:59;;;;;;;5.43;1.08;;;;;;;;;;5108926;28;20052;-76
2023/10/16 07:22:32;;;;;;;1.95;0.88;;;;;;;;;;5110261;28;20070;-79
2023/10/16 07:25:10;;;;;;;2.85;0.82;;;;;;;;;;5112809;28;20492;-76
2023/10/16 07:27:37;;;;;;;2.75;0.95;;;;;;;;;;5112906;28;20044;-75
2023/10/16 07:30:21;;;;;;;3.00;1.00;;;;;;;;;;5113341;28;20076;-70
2023/10/16 07:32:51;;;;;;;4.57;1.10;;;;;;;;;;5112598;28;20054;-81
2023/10/16 07:35:21;;;;;;;6.07;1.58;;;;;;;;;;5112896;28;20079;-80
2023/10/16 07:37:48;;;;;;;3.03;1.05;;;;;;;;;;5112664;28;20048;-76
2023/10/16 07:40:25;;;;;;;3.58;1.38;;;;;;;;;;5112333;28;20608;-76
2023/10/16 07:42:53;;;;;;;4.50;0.98;;;;;;;;;;5112512;28;20626;-79
2023/10/16 07:45:20;;;;;;;2.70;0.98;;;;;;;;;;5113105;28;20100;-75
2023/10/16 07:47:48;;;;;;;4.72;1.40;;;;;;;;;;5112282;28;20537;-79
2023/10/16 07:50:16;;;;;;;3.67;1.08;;;;;;;;;;5112784;28;20083;-80
2023/10/16 07:52:46;;;;;;;2.55;1.20;;;;;;;;;;5112489;28;20070;-80
2023/10/16 07:55:19;;;;;;;7.00;1.67;;;;;;;;;;5112436;28;20048;-78
2023/10/16 07:57:49;;;;;;;4.70;1.23;;;;;;;;;;5112249;28;20147;-81
2023/10/16 08:00:15;;;;;;;5.93;1.27;;;;;;;;;;5112678;28;20079;-76
2023/10/16 08:02:45;;;;;;;3.45;1.20;;;;;;;;;;5112609;28;20054;-78
2023/10/16 08:05:15;;;;;;;4.53;1.00;;;;;;;;;;5112174;28;20048;-80
2023/10/16 08:07:49;;;;;;;2.90;1.02;;;;;;;;;;5111907;28;20556;-81
2023/10/16 08:10:41;;;;;;;4.40;1.20;;;;;;;;;;5111976;28;20047;-81
2023/10/16 08:13:12;;;;;;;3.95;1.20;;;;;;;;;;5097664;28;20059;-81
2023/10/16 08:15:48;;;;;;;4.70;1.00;;;;;;;;;;5111884;28;20048;-80
2023/10/16 08:18:18;;;;;;;3.38;1.00;;;;;;;;;;5111733;28;20051;-82
2023/10/16 08:21:05;;;;;;;5.40;1.00;;;;;;;;;;5112343;28;20048;-80
2023/10/16 08:23:34;;;;;;;3.45;1.10;;;;;;;;;;5111250;28;20523;-80
2023/10/16 08:26:14;;;;;;;4.18;1.00;;;;;;;;;;5111955;28;20587;-78
2023/10/16 08:28:45;;;;;;;4.00;1.20;;;;;;;;;;5111339;28;20572;-77
2023/10/16 08:31:24;;;;;;;;;;;;;;;;;;5112246;28;20047;-78
2023/10/16 08:33:56;;;;;;;3.83;0.75;;;;;;;;;;5110377;28;19976;-80
2023/10/16 08:36:23;;;;;;;3.10;1.05;;;;;;;;;;5111778;28;20096;-78
2023/10/16 08:38:54;;;;;;;5.22;0.93;;;;;;;;;;5111195;28;20075;-78
2023/10/16 08:41:31;;;;;;;4.15;0.90;;;;;;;;;;5111493;28;20078;-80
2023/10/16 08:44:05;;;;;;;2.35;0.80;;;;;;;;;;5111307;28;20055;-80
2023/10/16 08:46:35;;;;;;;3.97;0.98;;;;;;;;;;5111533;28;20055;-80
2023/10/16 08:49:10;;;;;;;1.95;0.77;;;;;;;;;;5111501;28;20043;-77
2023/10/16 08:51:38;;;;;;;2.80;0.90;;;;;;;;;;5111674;28;20047;-81
2023/10/16 08:54:26;;;;;;;3.88;0.80;;;;;;;;;;5110846;28;20130;-78
2023/10/16 08:56:53;;;;;;;1.55;0.70;;;;;;;;;;5111437;28;20044;-77
2023/10/16 08:59:25;;;;;;;1.88;0.70;;;;;;;;;;5111169;28;20525;-79
2023/10/16 09:01:57;;;;;;;2.83;0.70;;;;;;;;;;5111529;28;20074;-79
2023/10/16 09:04:26;;;;;;;4.18;0.80;;;;;;;;;;5111085;28;20047;-80
2023/10/16 09:06:54;;;;;;;2.30;0.70;;;;;;;;;;5110858;28;20054;-79
2023/10/16 09:09:25;;;;;;;3.55;0.98;;;;;;;;;;5110572;28;20044;-78
2023/10/16 09:12:00;;;;;;;2.00;0.75;;;;;;;;;;5111279;28;20043;-75
2023/10/16 09:14:27;;;;;;;1.65;0.70;;;;;;;;;;5110639;28;20047;-73
2023/10/16 09:16:55;;;;;;;4.30;0.90;;;;;;;;;;5110660;28;20051;-80
2023/10/16 09:19:33;;;;;;;5.07;0.80;;;;;;;;;;5110759;28;20050;-77
2023/10/16 09:22:09;;;;;;;1.23;0.70;;;;;;;;;;5110673;28;20048;-80
2023/10/16 09:24:36;;;;;;;2.08;0.73;;;;;;;;;;5110455;28;20044;-77
2023/10/16 09:27:16;;;;;;;2.95;0.73;;;;;;;;;;5110638;28;20062;-79
2023/10/16 09:29:53;;;;;;;1.20;0.70;;;;;;;;;;5110443;28;20592;-81
2023/10/16 09:32:25;;;;;;;2.15;0.70;;;;;;;;;;5110487;28;20487;-80
2023/10/16 09:34:53;;;;;;;3.70;0.73;;;;;;;;;;5110502;28;20051;-79
2023/10/16 09:37:34;;;;;;;3.83;0.60;;;;;;;;;;5110383;28;20480;-76
2023/10/16 09:40:18;;;;;;;2.22;0.88;;;;;;;;;;5109898;28;20055;-76
2023/10/16 09:43:05;;;;;;;3.17;0.90;;;;;;;;;;5110143;28;20063;-80
2023/10/16 09:45:36;;;;;;;2.30;0.70;;;;;;;;;;5109835;28;20059;-79
2023/10/16 09:48:08;;;;;;;5.07;0.80;;;;;;;;;;5091465;28;20040;-80
2023/10/16 09:50:42;;;;;;;1.20;0.55;;;;;;;;;;5110419;28;20126;-77
2023/10/16 09:53:09;;;;;;;3.55;0.73;;;;;;;;;;5109383;28;20169;-74
2023/10/16 09:55:44;;;;;;;4.30;0.80;;;;;;;;;;5109848;28;20040;-78
2023/10/16 09:58:11;;;;;;;2.67;0.65;;;;;;;;;;5109444;28;20452;-70
2023/10/16 10:00:39;;;;;;;6.05;0.80;;;;;;;;;;5110216;28;20104;-72
2023/10/16 10:03:12;;;;;;;4.60;0.68;;;;;;;;;;5110067;28;20075;-71
2023/10/16 10:11:38;;;;;;;1.45;0.60;;;;;;;;;;5066544;28;20431;-82
2023/10/16 10:16:58;;;;;;;4.65;0.95;;;;;;;;;;5109394;28;20504;-78
2023/10/16 10:19:32;;;;;;;6.07;0.82;;;;;;;;;;5091239;28;20047;-68
2023/10/16 10:22:22;;;;;;;3.45;0.90;;;;;;;;;;5110017;28;20050;-76
2023/10/16 10:25:22;;;;;;;2.25;0.70;;;;;;;;;;5109011;28;20557;-77
2023/10/16 10:27:50;;;;;;;3.92;0.70;;;;;;;;;;5109254;28;20573;-80
2023/10/16 10:30:27;;;;;;;2.83;0.80;;;;;;;;;;5109364;28;20543;-81
2023/10/16 10:32:59;;;;;;;1.63;0.50;;;;;;;;;;5109795;28;20075;-81
2023/10/16 10:35:28;;;;;;;1.95;0.60;;;;;;;;;;5109626;28;20268;-80
2023/10/16 10:38:07;;;;;;;2.60;0.63;;;;;;;;;;5090777;28;20066;-80
2023/10/16 10:40:37;;;;;;;4.45;0.85;;;;;;;;;;5109063;28;20514;-81
2023/10/16 10:43:04;;;;;;;3.13;0.82;;;;;;;;;;5109606;28;20048;-82
2023/10/16 10:45:36;;;;;;;1.08;0.43;;;;;;;;;;5109192;28;20090;-79
2023/10/16 10:48:09;;;;;;;2.83;0.70;;;;;;;;;;5109077;28;20050;-81
2023/10/16 10:50:40;;;;;;;3.35;0.68;;;;;;;;;;5109110;28;20699;-82
2023/10/16 10:53:14;;;;;;;4.70;0.80;;;;;;;;;;5108629;28;20087;-80
2023/10/16 10:55:58;;;;;;;2.13;0.80;;;;;;;;;;5091582;28;20158;-81
2023/10/16 10:58:31;;;;;;;3.33;0.60;;;;;;;;;;5108610;28;20058;-79
2023/10/16 11:01:16;;;;;;;2.33;0.43;;;;;;;;;;5109414;28;20069;-80
2023/10/16 11:03:48;;;;;;;3.63;0.82;;;;;;;;;;5108970;28;20492;-81
2023/10/16 11:06:18;;;;;;;1.38;0.50;;;;;;;;;;5109366;28;20633;-80
2023/10/16 11:08:47;;;;;;;;;;;;;;;;;;5108827;28;20415;-81
2023/10/16 11:11:15;;;;;;;2.00;0.50;;;;;;;;;;5109112;28;19919;-81
2023/10/16 11:13:49;;;;;;;2.50;0.65;;;;;;;;;;5109001;28;20054;-80
2023/10/16 11:16:16;;;;;;;2.13;0.55;;;;;;;;;;5108993;28;20150;-80
2023/10/16 11:18:59;;;;;;;3.92;0.80;;;;;;;;;;5108658;28;20134;-73
2023/10/16 11:21:28;;;;;;;4.32;0.80;;;;;;;;;;5109267;28;20051;-79
2023/10/16 11:23:55;;;;;;;1.77;0.52;;;;;;;;;;5108448;28;20044;-77
2023/10/16 11:26:28;;;;;;;0.77;0.50;;;;;;;;;;5109390;28;20123;-79
2023/10/16 11:28:56;;;;;;;4.93;0.80;;;;;;;;;;5108952;28;20052;-80
2023/10/16 11:31:24;;;;;;;2.33;0.50;;;;;;;;;;5109406;28;20058;-81
2023/10/16 11:34:01;;;;;;;2.78;0.60;;;;;;;;;;5109073;28;20043;-79
2023/10/16 11:36:29;;;;;;;1.13;0.60;;;;;;;;;;5108976;28;20067;-78
2023/10/16 11:39:10;;;;;;;2.50;0.60;;;;;;;;;;5107980;28;20058;-76
2023/10/16 11:41:36;;;;;;;5.65;0.77;;;;;;;;;;5108519;28;20058;-81
2023/10/16 11:44:14;;;;;;;1.35;0.60;;;;;;;;;;5108642;28;20051;-77
2023/10/16 11:46:46;;;;;;;2.10;0.60;;;;;;;;;;5108750;28;20480;-78
2023/10/16 11:49:22;;;;;;;3.58;0.98;;;;;;;;;;5108227;28;20434;-79
2023/10/16 11:51:53;;;;;;;4.65;0.65;;;;;;;;;;5108836;28;20050;-81
2023/10/16 11:54:23;;;;;;;1.70;0.60;;;;;;;;;;5108223;28;20039;-79
2023/10/16 11:56:55;;;;;;;2.45;0.73;;;;;;;;;;5108824;28;20636;-81
2023/10/16 11:59:28;;;;;;;1.55;0.70;;;;;;;;;;5090942;28;20679;-76
2023/10/16 12:01:59;;;;;;;1.33;0.70;;;;;;;;;;5108716;28;20054;-79
2023/10/16 12:04:30;;;;;;;1.98;0.70;;;;;;;;;;5108256;28;20457;-80
2023/10/16 12:06:58;;;;;;;3.10;0.70;;;;;;;;;;5108715;28;20092;-81
2023/10/16 12:09:27;;;;;;;1.80;0.50;;;;;;;;;;5110725;28;20125;-74
2023/10/16 12:11:55;;;;;;;2.10;0.80;;;;;;;;;;5112548;28;20105;-79
2023/10/16 12:14:23;;;;;;;1.30;0.60;;;;;;;;;;5112167;28;20104;-80
2023/10/16 12:16:52;;;;;;;1.38;0.70;;;;;;;;;;5107315;28;20052;-80
2023/10/16 12:19:19;;;;;;;1.13;0.50;;;;;;;;;;5090976;28;20135;-77
2023/10/16 12:21:52;;;;;;;1.65;0.70;;;;;;;;;;5091955;28;20055;-79
2023/10/16 12:24:20;;;;;;;2.67;0.88;;;;;;;;;;5090947;28;20055;-81
2023/10/16 12:26:47;;;;;;;2.13;0.70;;;;;;;;;;5091389;28;20557;-81
2023/10/16 12:29:14;;;;;;;1.13;0.70;;;;;;;;;;5091272;28;20492;-80
2023/10/16 12:31:41;;;;;;;1.60;0.80;;;;;;;;;;5091696;28;20048;-80
2023/10/16 12:34:11;;;;;;;2.60;0.80;;;;;;;;;;5107337;28;20048;-81
2023/10/16 12:36:40;;;;;;;2.67;0.80;;;;;;;;;;5091243;28;20136;-81
2023/10/16 12:39:16;;;;;;;1.90;0.70;;;;;;;;;;5090559;28;20143;-82
2023/10/16 12:41:44;;;;;;;3.92;0.80;;;;;;;;;;5089993;28;20468;-83
2023/10/16 12:44:11;;;;;;;1.70;0.98;;;;;;;;;;5091505;28;20043;-82
2023/10/16 12:46:38;;;;;;;2.80;0.80;;;;;;;;;;5091294;28;20044;-81
2023/10/16 12:49:08;;;;;;;4.35;1.00;;;;;;;;;;5091334;28;20052;-79
2023/10/16 12:51:35;;;;;;;1.83;0.80;;;;;;;;;;5089821;28;20128;-81
2023/10/16 12:54:03;;;;;;;4.57;0.82;;;;;;;;;;5089343;28;20080;-80
2023/10/16 12:56:31;;;;;;;2.22;0.70;;;;;;;;;;5091067;28;20040;-80
2023/10/16 12:59:02;;;;;;;7.72;0.90;;;;;;;;;;5090944;28;20044;-82
2023/10/16 13:01:29;;;;;;;3.90;1.42;;;;;;;;;;5090779;28;20047;-81
2023/10/16 13:03:59;;;;;;;1.35;0.80;;;;;;;;;;5090615;28;20048;-81
2023/10/16 13:06:28;;;;;;;2.10;0.90;;;;;;;;;;5090536;28;20178;-79
2023/10/16 13:08:57;;;;;;;3.65;0.60;;;;;;;;;;5090449;28;20048;-80
2023/10/16 13:11:24;;;;;;;3.33;0.93;;;;;;;;;;5090501;28;20044;-81
2023/10/16 13:13:55;;;;;;;4.47;1.00;;;;;;;;;;5090515;28;20048;-80
2023/10/16 13:16:26;;;;;;;1.60;0.90;;;;;;;;;;5099964;28;20652;-80
2023/10/16 13:18:57;;;;;;;2.45;1.00;;;;;;;;;;5110697;28;20500;-81
2023/10/16 13:21:33;;;;;;;2.40;1.05;;;;;;;;;;5109695;28;20049;-80
2023/10/16 13:24:09;;;;;;;2.70;0.65;;;;;;;;;;5110424;28;20048;-80
2023/10/16 13:26:36;;;;;;;3.22;0.90;;;;;;;;;;5110472;28;20100;-80
2023/10/16 13:29:11;;;;;;;4.35;1.00;;;;;;;;;;5110719;28;20047;-80
2023/10/16 13:31:45;;;;;;;2.70;0.80;;;;;;;;;;5110053;28;20139;-80
2023/10/16 13:34:17;;;;;;;2.75;0.80;;;;;;;;;;5110779;28;20126;-78
2023/10/16 13:37:08;;;;;;;2.53;0.80;;;;;;;;;;5110165;28;20450;-79
2023/10/16 13:39:41;;;;;;;1.85;0.80;;;;;;;;;;5109970;28;20039;-79
2023/10/16 13:42:08;;;;;;;3.53;1.17;;;;;;;;;;5109981;28;20519;-79
2023/10/16 13:44:36;;;;;;;2.85;0.70;;;;;;;;;;5110343;28;20048;-79
2023/10/16 13:47:06;;;;;;;2.30;0.85;;;;;;;;;;5109811;28;20526;-79
2023/10/16 13:49:36;;;;;;;4.93;0.90;;;;;;;;;;5109731;28;20054;-79
2023/10/16 13:52:07;;;;;;;3.17;0.90;;;;;;;;;;5110093;28;20130;-79
2023/10/16 13:54:41;;;;;;;6.15;0.95;;;;;;;;;;5109659;28;20115;-79
2023/10/16 13:57:08;;;;;;;1.52;0.70;;;;;;;;;;5109627;28;20048;-79
2023/10/16 13:59:35;;;;;;;2.13;1.00;;;;;;;;;;5109727;28;20531;-79
2023/10/16 14:02:02;;;;;;;12.70;2.25;;;;;;;;;;5109577;28;20138;-78
2023/10/16 14:04:33;;;;;;;2.80;0.90;;;;;;;;;;5110116;28;20075;-79
2023/10/16 14:07:00;;;;;;;2.08;0.73;;;;;;;;;;5109636;28;20571;-79
2023/10/16 14:09:32;;;;;;;2.63;0.80;;;;;;;;;;5109187;28;20079;-80
2023/10/16 14:12:00;;;;;;;1.65;0.80;;;;;;;;;;5109931;28;20130;-79
2023/10/16 14:14:30;;;;;;;2.92;0.90;;;;;;;;;;5110020;28;20043;-80
2023/10/16 14:17:03;;;;;;;3.20;0.90;;;;;;;;;;5109394;28;20083;-80
2023/10/16 14:19:32;;;;;;;2.80;1.00;;;;;;;;;;5109567;28;20047;-80
2023/10/16 14:21:59;;;;;;;2.15;1.00;;;;;;;;;;5109215;28;20077;-79
2023/10/16 14:24:27;;;;;;;4.97;0.88;;;;;;;;;;5109113;28;20081;-78
2023/10/16 14:26:56;;;;;;;2.55;1.00;;;;;;;;;;5109580;28;20044;-80
2023/10/16 14:29:27;;;;;;;1.70;0.77;;;;;;;;;;5109449;28;20671;-81
2023/10/16 14:31:56;;;;;;;1.45;0.80;;;;;;;;;;5109289;28;20052;-78
2023/10/16 14:34:25;;;;;;;2.20;1.00;;;;;;;;;;5109483;28;20135;-78
2023/10/16 14:36:54;;;;;;;2.58;0.98;;;;;;;;;;5109448;28;20134;-76
2023/10/16 14:39:27;;;;;;;5.32;1.00;;;;;;;;;;5108744;28;20044;-71
2023/10/16 14:42:01;;;;;;;2.28;1.20;;;;;;;;;;5109045;28;20055;-68
2023/10/16 14:44:29;;;;;;;1.80;1.08;;;;;;;;;;5109179;28;20411;-78
2023/10/16 14:46:56;;;;;;;3.00;1.20;;;;;;;;;;5109200;28;20047;-78
2023/10/16 14:49:27;;;;;;;7.50;1.13;;;;;;;;;;5091300;28;20414;-75
2023/10/16 14:51:54;;;;;;;3.38;1.17;;;;;;;;;;5108966;28;20043;-74
2023/10/16 14:54:22;;;;;;;3.80;1.27;;;;;;;;;;5108572;28;20061;-78
2023/10/16 14:56:51;;;;;;;2.83;1.02;;;;;;;;;;5108947;28;20048;-79
2023/10/16 14:59:27;;;;;;;5.40;1.38;;;;;;;;;;5109019;28;20540;-73
2023/10/16 15:01:54;;;;;;;3.47;1.20;;;;;;;;;;5108576;28;20583;-78
2023/10/16 15:04:23;;;;;;;7.53;1.35;;;;;;;;;;5109464;28;20066;-79
2023/10/16 15:06:51;;;;;;;2.90;1.33;;;;;;;;;;5109085;28;20043;-80
2023/10/16 15:09:18;;;;;;;2.53;1.10;;;;;;;;;;5108621;28;20557;-79
2023/10/16 15:11:49;;;;;;;3.70;1.10;;;;;;;;;;5108606;28;20040;-78
2023/10/16 15:14:16;;;;;;;4.90;1.27;;;;;;;;;;5109054;28;20488;-81
2023/10/16 15:16:43;;;;;;;5.28;1.20;;;;;;;;;;5108260;28;20047;-79
2023/10/16 15:19:11;;;;;;;4.97;1.25;;;;;;;;;;5108920;28;20586;-80
2023/10/16 15:21:40;;;;;;;3.33;1.20;;;;;;;;;;5108277;28;20689;-81
2023/10/16 15:24:09;;;;;;;3.78;1.35;;;;;;;;;;5108535;28;20568;-75
2023/10/16 15:26:36;;;;;;;3.25;1.08;;;;;;;;;;5108781;28;20486;-76
2023/10/16 15:29:04;;;;;;;4.03;1.33;;;;;;;;;;5109083;28;20050;-76
2023/10/16 15:31:31;;;;;;;6.40;1.33;;;;;;;;;;5108250;28;20072;-78
2023/10/16 15:33:59;;;;;;;3.70;1.48;;;;;;;;;;5108641;28;20082;-80
2023/10/16 15:36:26;;;;;;;3.20;1.20;;;;;;;;;;5108593;28;20469;-78
2023/10/16 15:38:53;;;;;;;7.53;1.20;;;;;;;;;;5108622;28;20097;-80
2023/10/16 15:41:19;;;;;;;2.95;1.05;;;;;;;;;;5108453;28;20052;-79
2023/10/16 15:43:46;;;;;;;5.53;1.17;;;;;;;;;;5110326;28;20050;-80
2023/10/16 15:46:20;;;;;;;4.80;1.30;;;;;;;;;;5112843;28;20047;-80
2023/10/16 15:48:47;;;;;;;2.90;1.05;;;;;;;;;;5112732;28;20050;-79
2023/10/16 15:51:14;;;;;;;2.50;1.05;;;;;;;;;;5110981;28;20134;-78
2023/10/16 15:53:45;;;;;;;3.85;1.33;;;;;;;;;;5111799;28;20492;-79
2023/10/16 15:56:12;;;;;;;3.80;1.10;;;;;;;;;;5112535;28;20509;-79
2023/10/16 15:58:39;;;;;;;5.28;1.40;;;;;;;;;;5112162;28;20052;-77
2023/10/16 16:01:10;;;;;;;2.30;0.98;;;;;;;;;;5111978;28;20062;-80
2023/10/16 16:03:39;;;;;;;5.05;1.17;;;;;;;;;;5112043;28;20051;-80
2023/10/16 16:06:10;;;;;;;4.40;1.10;;;;;;;;;;5112312;28;20062;-78
2023/10/16 16:08:44;;;;;;;5.47;1.08;;;;;;;;;;5111638;28;20055;-80
2023/10/16 16:11:13;;;;;;;4.97;1.13;;;;;;;;;;5112192;28;20047;-78
2023/10/16 16:13:41;;;;;;;3.80;1.10;;;;;;;;;;5112079;28;20127;-80
2023/10/16 16:16:09;;;;;;;3.83;1.20;;;;;;;;;;5111887;28;20067;-80
2023/10/16 16:18:37;;;;;;;4.80;1.40;;;;;;;;;;5093929;28;20047;-80
2023/10/16 16:21:05;;;;;;;4.80;1.10;;;;;;;;;;5111972;28;20120;-80
2023/10/16 16:23:33;;;;;;;8.20;1.50;;;;;;;;;;5111302;28;20079;-79
2023/10/16 16:25:59;;;;;;;1.90;0.95;;;;;;;;;;5112183;28;20051;-80
2023/10/16 16:28:26;;;;;;;2.72;1.02;;;;;;;;;;5111706;28;20052;-79
2023/10/16 16:30:53;;;;;;;3.00;1.00;;;;;;;;;;5111438;28;20040;-80
2023/10/16 16:33:20;;;;;;;5.18;1.20;;;;;;;;;;5110181;28;20047;-79
2023/10/16 16:35:47;;;;;;;6.03;1.33;;;;;;;;;;5111685;28;20495;-80
2023/10/16 16:38:14;;;;;;;4.32;1.20;;;;;;;;;;5110955;28;20044;-80
2023/10/16 16:40:41;;;;;;;4.43;1.23;;;;;;;;;;5111633;28;20067;-79